Hooper Bay Airport Hooper Bay US
ICAO: PAHP
IATA:
Category: Medium
Scheduled Services:

Elevation: 13 ft
TransAlt. 18000 ft.

Airport Communications:
AWOS 3:135.1
CTAF:123
KENAI RDO:122.4
TWEB:115.2

PAHP Zoom In..

If you have problems with the map follow the link
https://www.worldairports.se/pages/airport.php?
ICAO=PAHP

Runways:

(A) RW 13 length 3300 ft width 75 ft
---- / hdg 136

(B) RW 31 length 3300 ft width 75 ft
---- / hdg 316

Location; PAHP
Day. 18 / Time. 03.56 Zulu
* Altimeter: 29.80
* Temperature: -21° c. 5.8°f.
* Wind from: 070° Speed 09 kn.
Dewpoint: -24° c.
Visibility: 10 Statute Miles.
Clouds: Clear (automated report).

PAHP 180356Z AUTO 07009KT 10SM CLR M21/M24 A2980 RMK AO2 SLP090 T12111239 FZRANO


Wind From 070°
Speed 09 kn.

 
 
jpsmedia worldairports.se 2020   terms of use